This is the latest recevied weather packets stored in our database for station/object OM2RC-6. If no packets are shown the sender has not sent any weather packets the latest 10 day(s).
| Time | Temp. | Humidity | Pressure | Rain* | Wind** | Luminosity | Snow |
|---|---|---|---|---|---|---|---|
| 1777623698 | 17.78° C | 42% | 1030.3 hPa | - | - | - | - |
| 1777623398 | 19.44° C | 41% | 1030.3 hPa | - | - | - | - |
| 1777623097 | 16.67° C | 44% | 1030.3 hPa | - | - | - | - |
| 1777622796 | 17.78° C | 42% | 1030.3 hPa | - | - | - | - |
| 1777621891 | 13.33° C | 51% | 1030.6 hPa | - | - | - | - |
| 1777621591 | 13.33° C | 49% | 1030.6 hPa | - | - | - | - |
| 1777621290 | 16.11° C | 43% | 1030.3 hPa | - | - | - | - |
| 1777620989 | 15° C | 47% | 1030.4 hPa | - | - | - | - |
| 1777620688 | 15.56° C | 46% | 1030.4 hPa | - | - | - | - |
| 1777620387 | 12.22° C | 57% | 1030.6 hPa | - | - | - | - |
| 1777620086 | 12.22° C | 58% | 1030.5 hPa | - | - | - | - |
| 1777619484 | 12.22° C | 53% | 1030.4 hPa | - | - | - | - |
| 1777619183 | 12.78° C | 51% | 1030.5 hPa | - | - | - | - |
| 1777618882 | 12.78° C | 51% | 1030.4 hPa | - | - | - | - |
| 1777618579 | 12.78° C | 53% | 1030.5 hPa | - | - | - | - |
| 1777618277 | 10.56° C | 58% | 1030.6 hPa | - | - | - | - |
| 1777617975 | 11.67° C | 60% | 1030.5 hPa | - | - | - | - |
| 1777617674 | 10° C | 63% | 1030.5 hPa | - | - | - | - |
| 1777617373 | 10° C | 63% | 1030.5 hPa | - | - | - | - |
| 1777617071 | 9.44° C | 62% | 1030.6 hPa | - | - | - | - |
| 1777616770 | 8.89° C | 74% | 1030.6 hPa | - | - | - | - |
| 1777616468 | 8.33° C | 76% | 1030.6 hPa | - | - | - | - |
| 1777616166 | 8.33° C | 75% | 1030.6 hPa | - | - | - | - |
| 1777615863 | 8.33° C | 78% | 1030.5 hPa | - | - | - | - |
| 1777615563 | 8.33° C | 82% | 1030.6 hPa | - | - | - | - |
* Rain since midnight (hover to see other rain measurements)
** Current wind speed in m/s (hover to see current wind gust speed)